Time;durP1;ratioP1;P1;durP2;ratioP2;P2;SDS_P1;SDS_P2;PMS_P1;PMS_P2;Temp;Humidity;BMP_temperature;BMP_pressure;BME280_temperature;BME280_humidity;BME280_pressure;Samples;Min_cycle;Max_cycle;Signal;HPM_P1;HPM_P2
2023/04/09 00:04:32;;;;;;;28.33;14.80;;;5.30;99.90;;;;;;20863074;28;20033;-76
2023/04/09 00:14:33;;;;;;;27.85;15.77;;;4.90;99.90;;;;;;20817777;28;20064;-76
2023/04/09 00:24:34;;;;;;;30.88;17.10;;;4.70;99.90;;;;;;20830358;28;20511;-76
2023/04/09 00:34:35;;;;;;;33.05;16.38;;;4.80;99.90;;;;;;20829826;28;20033;-76
2023/04/09 00:44:36;;;;;;;28.20;14.82;;;4.70;99.90;;;;;;20828750;28;20029;-76
2023/04/09 00:54:37;;;;;;;27.60;15.15;;;4.50;99.90;;;;;;20827744;28;20515;-76
2023/04/09 01:04:40;;;;;;;32.42;16.17;;;4.70;99.90;;;;;;20826960;28;20105;-76
2023/04/09 01:15:04;;;;;;;32.97;16.00;;;4.60;99.90;;;;;;20827129;28;20529;-76
2023/04/09 01:25:29;;;;;;;32.42;16.90;;;4.60;99.90;;;;;;20825073;28;20488;-76
2023/04/09 01:35:30;;;;;;;32.42;17.55;;;4.90;99.90;;;;;;20857906;28;20116;-76
2023/04/09 01:45:32;;;;;;;33.60;16.08;;;5.10;99.90;;;;;;20825042;28;20029;-76
2023/04/09 01:55:33;;;;;;;33.47;17.30;;;5.20;99.90;;;;;;20823169;28;20034;-76
2023/04/09 02:05:36;;;;;;;;;;;5.30;99.90;;;;;;20825129;28;20033;-77
2023/04/09 02:15:39;;;;;;;31.63;15.85;;;5.40;99.90;;;;;;20835396;28;20358;-76
2023/04/09 02:25:40;;;;;;;32.25;17.17;;;5.40;99.90;;;;;;20871940;28;20033;-76
2023/04/09 02:35:40;;;;;;;;;;;5.50;99.90;;;;;;20868192;28;20031;-76
2023/04/09 02:45:41;;;;;;;30.93;18.03;;;5.40;99.90;;;;;;20861504;28;19916;-76
2023/04/09 02:55:42;;;;;;;;;;;5.40;99.90;;;;;;20870020;28;20403;-76
2023/04/09 03:05:43;;;;;;;32.37;16.80;;;5.50;99.90;;;;;;20868961;28;19913;-76
2023/04/09 03:15:44;;;;;;;31.60;17.13;;;5.40;99.90;;;;;;20867982;28;20353;-76
2023/04/09 03:25:45;;;;;;;34.33;16.83;;;4.90;99.90;;;;;;20833542;28;20517;-76
2023/04/09 03:35:49;;;;;;;34.25;17.65;;;4.70;99.90;;;;;;20833139;28;20095;-77
2023/04/09 03:45:53;;;;;;;37.70;18.13;;;4.70;99.90;;;;;;20865892;28;20030;-76
2023/04/09 03:56:01;;;;;;;38.15;17.90;;;4.60;99.90;;;;;;20816410;28;20040;-76
2023/04/09 04:06:03;;;;;;;22.15;11.65;;;4.30;99.90;;;;;;20830849;28;20048;-76
2023/04/09 04:16:14;;;;;;;24.43;11.40;;;4.00;99.90;;;;;;20829922;28;20033;-76
2023/04/09 04:26:15;;;;;;;22.02;10.60;;;4.00;99.90;;;;;;20845972;28;20034;-76
2023/04/09 04:36:16;;;;;;;18.88;9.63;;;4.20;99.90;;;;;;20860694;28;20037;-76
2023/04/09 04:46:21;;;;;;;23.17;11.48;;;3.90;99.90;;;;;;20828010;28;20026;-76
2023/04/09 04:56:22;;;;;;;23.92;11.48;;;3.90;99.90;;;;;;20826917;28;20420;-76
2023/04/09 05:06:33;;;;;;;23.55;11.48;;;3.60;99.90;;;;;;20826226;28;20120;-76
2023/04/09 05:16:39;;;;;;;24.90;11.13;;;3.40;99.90;;;;;;20820948;28;20037;-76
2023/04/09 05:26:41;;;;;;;24.75;11.45;;;3.50;99.90;;;;;;20824711;28;20057;-76
2023/04/09 05:36:41;;;;;;;27.85;13.05;;;3.50;99.90;;;;;;20825553;28;20514;-76
2023/04/09 05:46:43;;;;;;;27.08;13.38;;;3.70;99.90;;;;;;20857589;28;20155;-76
2023/04/09 05:56:46;;;;;;;24.48;13.02;;;4.20;99.90;;;;;;20857221;28;20037;-76
2023/04/09 06:06:48;;;;;;;24.92;12.00;;;4.50;99.90;;;;;;20812036;28;20022;-76
2023/04/09 06:16:49;;;;;;;23.90;12.10;;;4.70;99.90;;;;;;20823546;28;20083;-76
2023/04/09 06:26:50;;;;;;;;;;;4.90;99.90;;;;;;20847210;28;20038;-78
2023/04/09 06:36:51;;;;;;;27.13;13.38;;;5.20;99.90;;;;;;20823872;28;19913;-78
2023/04/09 06:46:52;;;;;;;;;;;5.50;99.90;;;;;;20818994;28;20431;-77
2023/04/09 06:56:52;;;;;;;23.00;11.97;;;5.90;99.90;;;;;;20825654;28;19912;-77
2023/04/09 07:06:55;;;;;;;25.90;12.23;;;6.20;99.90;;;;;;20871649;28;20283;-77
2023/04/09 07:16:56;;;;;;;28.75;14.38;;;6.80;99.90;;;;;;20828052;28;20029;-77
2023/04/09 07:26:57;;;;;;;27.07;14.37;;;6.60;99.90;;;;;;20827706;28;20057;-77
2023/04/09 07:36:57;;;;;;;24.50;12.97;;;6.80;99.90;;;;;;20838345;28;20523;-77
2023/04/09 07:46:58;;;;;;;22.07;11.80;;;8.80;99.90;;;;;;20842461;28;20290;-78
2023/04/09 07:57:00;;;;;;;21.47;10.73;;;9.20;99.90;;;;;;20844662;28;20496;-78
2023/04/09 08:07:01;;;;;;;22.45;10.77;;;10.20;99.90;;;;;;20847286;28;20037;-79
2023/04/09 08:17:03;;;;;;;23.63;12.23;;;10.20;99.90;;;;;;20842252;28;20041;-79
2023/04/09 08:27:04;;;;;;;18.55;10.98;;;11.40;99.90;;;;;;20833283;28;20034;-78
2023/04/09 08:37:05;;;;;;;17.40;9.77;;;11.00;99.90;;;;;;20845577;28;20048;-78
2023/04/09 08:47:10;;;;;;;16.02;9.32;;;12.20;99.90;;;;;;20844081;28;20053;-80
2023/04/09 08:57:11;;;;;;;12.82;8.55;;;12.90;99.90;;;;;;20844946;28;20052;-79
2023/04/09 09:07:12;;;;;;;12.30;7.43;;;13.30;99.90;;;;;;20842610;28;20037;-77
2023/04/09 09:17:13;;;;;;;13.07;7.87;;;13.10;99.90;;;;;;20840362;28;20087;-78
2023/04/09 09:27:35;;;;;;;11.23;7.22;;;13.60;99.90;;;;;;20837167;28;20036;-78
2023/04/09 09:37:36;;;;;;;10.73;6.82;;;14.20;99.90;;;;;;20838192;28;20044;-80
2023/04/09 09:47:37;;;;;;;9.93;5.47;;;14.10;99.90;;;;;;20837435;28;20511;-80
2023/04/09 09:57:40;;;;;;;9.23;6.13;;;14.90;99.90;;;;;;20837925;28;20037;-78
2023/04/09 10:07:42;;;;;;;32.78;17.08;;;14.90;99.90;;;;;;20832692;28;20026;-79
2023/04/09 10:17:43;;;;;;;9.05;5.28;;;15.50;99.90;;;;;;20828287;28;20021;-77
2023/04/09 10:27:45;;;;;;;6.33;4.57;;;15.00;98.40;;;;;;20840025;28;20037;-78
2023/04/09 10:37:49;;;;;;;4.13;2.50;;;16.00;98.50;;;;;;20850479;28;20407;-78
2023/04/09 10:47:53;;;;;;;6.32;4.07;;;16.30;96.90;;;;;;20864023;28;20040;-78
2023/04/09 10:57:53;;;;;;;6.40;4.05;;;16.30;97.10;;;;;;20905234;28;20032;-78
2023/04/09 11:08:09;;;;;;;5.47;3.83;;;16.10;96.10;;;;;;20844145;28;20026;-79
2023/04/09 11:18:18;;;;;;;5.53;3.72;;;16.60;95.40;;;;;;20842424;28;20119;-78
2023/04/09 11:28:20;;;;;;;5.40;3.70;;;16.60;95.90;;;;;;20839751;28;20093;-78
2023/04/09 11:38:21;;;;;;;5.55;3.75;;;15.60;94.50;;;;;;20842876;28;20108;-77
2023/04/09 11:48:23;;;;;;;5.50;3.60;;;16.10;96.50;;;;;;20882838;28;20036;-78
2023/04/09 11:58:27;;;;;;;6.18;3.90;;;16.60;95.70;;;;;;20838167;28;20148;-76
2023/04/09 12:08:28;;;;;;;6.32;3.88;;;16.40;95.10;;;;;;20829132;28;20073;-77
2023/04/09 12:18:29;;;;;;;5.37;3.57;;;16.90;94.80;;;;;;20829448;28;20033;-78
2023/04/09 12:28:30;;;;;;;7.17;4.10;;;17.70;94.30;;;;;;20841958;28;20035;-77
2023/04/09 12:38:30;;;;;;;5.50;3.77;;;17.60;93.70;;;;;;20873384;28;20040;-78
2023/04/09 12:48:31;;;;;;;6.53;3.83;;;15.50;96.40;;;;;;20892177;28;20388;-78
2023/04/09 12:58:32;;;;;;;6.37;4.20;;;17.30;94.10;;;;;;20867421;28;20053;-78
2023/04/09 13:08:33;;;;;;;7.10;4.17;;;17.40;94.20;;;;;;20874348;28;20053;-77
2023/04/09 13:18:34;;;;;;;6.43;4.47;;;17.20;93.90;;;;;;20860129;28;20392;-77
2023/04/09 13:28:35;;;;;;;6.60;4.73;;;17.40;93.60;;;;;;20834508;28;20104;-78
2023/04/09 13:38:37;;;;;;;7.38;4.95;;;17.10;94.60;;;;;;20830383;28;20044;-78
2023/04/09 13:48:38;;;;;;;7.13;4.97;;;17.30;94.10;;;;;;20824494;28;20033;-78
2023/04/09 13:58:39;;;;;;;6.83;4.90;;;17.60;94.30;;;;;;20840743;28;20562;-79
2023/04/09 14:08:40;;;;;;;7.53;4.63;;;17.70;93.60;;;;;;20840686;28;20488;-78
2023/04/09 14:18:40;;;;;;;9.27;5.03;;;17.20;93.70;;;;;;20863147;28;20030;-78
2023/04/09 14:28:42;;;;;;;11.17;5.97;;;17.20;94.00;;;;;;20848295;28;20519;-80
2023/04/09 14:38:42;;;;;;;;;;;17.00;94.90;;;;;;20849275;28;20098;-79
2023/04/09 14:48:43;;;;;;;7.07;4.33;;;17.10;93.90;;;;;;20847376;28;19909;-79
2023/04/09 14:58:44;;;;;;;5.53;3.40;;;17.20;93.60;;;;;;20859061;28;20341;-79
2023/04/09 15:08:45;;;;;;;4.10;2.97;;;17.20;92.30;;;;;;20860602;28;20025;-79
2023/04/09 15:18:48;;;;;;;5.47;3.40;;;17.00;91.60;;;;;;20872420;28;20048;-78
2023/04/09 15:28:49;;;;;;;7.25;3.47;;;16.90;91.70;;;;;;20867246;28;20037;-79
2023/04/09 15:38:52;;;;;;;5.13;3.10;;;16.40;92.60;;;;;;20852847;28;20487;-79
2023/04/09 15:48:53;;;;;;;68.85;4.68;;;16.40;93.10;;;;;;20901259;28;20032;-78
2023/04/09 15:58:54;;;;;;;6.37;3.50;;;15.80;93.80;;;;;;20898515;28;20053;-79
2023/04/09 16:08:55;;;;;;;6.83;3.70;;;15.40;93.50;;;;;;20904799;28;20026;-79
2023/04/09 16:18:56;;;;;;;;;;;14.50;94.80;;;;;;20905970;28;20071;-78
2023/04/09 16:29:01;;;;;;;6.05;3.53;;;14.60;95.00;;;;;;20905115;28;19999;-79
2023/04/09 16:39:03;;;;;;;6.45;3.38;;;14.10;95.30;;;;;;20903289;28;20068;-79
2023/04/09 16:49:04;;;;;;;10.70;7.55;;;13.90;95.60;;;;;;20907438;28;20039;-79
2023/04/09 16:59:05;;;;;;;3.93;2.83;;;13.60;96.50;;;;;;20898908;28;20037;-79
2023/04/09 17:09:06;;;;;;;7.40;4.87;;;13.50;95.90;;;;;;20886482;28;20103;-78
2023/04/09 17:19:07;;;;;;;;;;;13.10;96.80;;;;;;20864163;28;20060;-78
2023/04/09 17:29:08;;;;;;;5.43;2.92;;;12.90;98.20;;;;;;20853264;28;19960;-78
2023/04/09 17:39:09;;;;;;;6.40;3.57;;;12.50;98.90;;;;;;20860232;28;20056;-78
2023/04/09 17:49:10;;;;;;;4.80;2.70;;;12.10;99.40;;;;;;20854292;28;20032;-78
2023/04/09 17:59:12;;;;;;;4.70;2.65;;;11.70;99.90;;;;;;20862494;28;20036;-78
2023/04/09 18:09:13;;;;;;;4.07;1.98;;;11.40;99.90;;;;;;20791301;28;20058;-78
2023/04/09 18:19:14;;;;;;;7.43;3.23;;;10.30;99.90;;;;;;20843548;28;20037;-78
2023/04/09 18:29:15;;;;;;;5.68;3.40;;;10.00;99.90;;;;;;20891189;28;20037;-77
2023/04/09 18:39:15;;;;;;;4.43;2.90;;;9.70;99.90;;;;;;20858627;28;20040;-77
2023/04/09 18:49:17;;;;;;;5.10;2.70;;;9.20;99.90;;;;;;20855855;28;20112;-77
2023/04/09 18:59:17;;;;;;;4.47;3.03;;;8.80;99.90;;;;;;20924477;28;20083;-79
2023/04/09 19:09:18;;;;;;;4.57;2.53;;;8.80;99.90;;;;;;20858125;28;20033;-78
2023/04/09 19:19:19;;;;;;;4.17;2.47;;;8.60;99.90;;;;;;20865340;28;20036;-78
2023/04/09 19:29:20;;;;;;;4.40;2.73;;;8.80;99.90;;;;;;20886227;28;20089;-77
2023/04/09 19:39:21;;;;;;;4.23;2.37;;;8.40;99.90;;;;;;20860241;28;20034;-77
2023/04/09 19:49:22;;;;;;;3.20;2.27;;;7.90;99.90;;;;;;20851906;28;20068;-77
2023/04/09 19:59:22;;;;;;;4.23;2.60;;;8.00;99.90;;;;;;20867742;28;20098;-77
2023/04/09 20:09:25;;;;;;;4.33;2.57;;;7.80;99.90;;;;;;20873453;28;20037;-78
2023/04/09 20:19:26;;;;;;;5.30;2.80;;;7.70;99.90;;;;;;20872949;28;20037;-78
2023/04/09 20:29:27;;;;;;;4.88;2.90;;;7.70;99.90;;;;;;20862021;28;20029;-77
2023/04/09 20:39:29;;;;;;;4.67;2.73;;;7.50;99.90;;;;;;20840551;28;20479;-77
2023/04/09 20:49:30;;;;;;;4.97;3.13;;;7.00;99.90;;;;;;20842412;28;20033;-76
2023/04/09 20:59:31;;;;;;;6.43;2.90;;;7.00;99.90;;;;;;20849988;28;20025;-76
2023/04/09 21:09:32;;;;;;;4.88;2.97;;;6.70;99.90;;;;;;20835087;28;20363;-76
2023/04/09 21:19:33;;;;;;;6.22;3.28;;;6.80;99.90;;;;;;20839049;28;20037;-77
2023/04/09 21:29:34;;;;;;;5.53;3.00;;;6.40;99.90;;;;;;20826506;28;20036;-77
2023/04/09 21:39:35;;;;;;;8.55;3.75;;;6.50;99.90;;;;;;20841827;28;20296;-77
2023/04/09 21:49:38;;;;;;;5.13;3.30;;;6.10;99.90;;;;;;20892353;28;20381;-77
2023/04/09 21:59:39;;;;;;;6.78;4.07;;;6.60;99.90;;;;;;20836696;28;20036;-77
2023/04/09 22:09:40;;;;;;;7.30;3.67;;;6.50;99.90;;;;;;20858529;28;20034;-77
2023/04/09 22:19:41;;;;;;;7.90;4.07;;;6.20;99.90;;;;;;20867581;28;20037;-76
2023/04/09 22:29:42;;;;;;;8.95;4.25;;;6.30;99.90;;;;;;20855157;28;20276;-76
2023/04/09 22:39:43;;;;;;;10.27;4.50;;;6.10;99.90;;;;;;20861409;28;20482;-76
2023/04/09 22:49:43;;;;;;;9.98;4.82;;;6.30;99.90;;;;;;20848826;28;20044;-77
2023/04/09 22:59:44;;;;;;;7.57;4.28;;;6.40;99.90;;;;;;20845902;28;20061;-77
2023/04/09 23:09:45;;;;;;;;;;;6.30;99.90;;;;;;20899138;28;20077;-77
2023/04/09 23:19:46;;;;;;;7.78;4.18;;;5.70;99.90;;;;;;20883069;28;19971;-77
2023/04/09 23:29:47;;;;;;;8.25;4.68;;;6.30;99.90;;;;;;20862790;28;20041;-77
2023/04/09 23:39:47;;;;;;;;;;;6.10;99.90;;;;;;20865359;28;20037;-77
2023/04/09 23:49:48;;;;;;;9.73;5.30;;;5.80;99.90;;;;;;20863646;28;19931;-77
2023/04/09 23:59:49;;;;;;;;;;;5.70;99.90;;;;;;20855733;28;20281;-77
